createdAt,value
2022-09-04T00:00:26.377Z,69.60
2022-09-04T00:02:52.697Z,69.11
2022-09-04T00:05:20.202Z,69.34
2022-09-04T00:07:46.745Z,70.17
2022-09-04T00:10:13.058Z,69.74
2022-09-04T00:12:39.361Z,69.69
2022-09-04T00:15:05.664Z,70.03
2022-09-04T00:17:31.964Z,69.58
2022-09-04T00:19:59.524Z,69.68
2022-09-04T00:22:26.249Z,70.49
2022-09-04T00:24:52.547Z,70.31
2022-09-04T00:27:18.853Z,69.88
2022-09-04T00:29:45.157Z,70.02
2022-09-04T00:32:11.466Z,70.23
2022-09-04T00:34:37.785Z,70.40
2022-09-04T00:37:04.521Z,69.85
2022-09-04T00:39:30.836Z,70.07
2022-09-04T00:41:57.169Z,70.17
2022-09-04T00:44:23.472Z,70.76
2022-09-04T00:46:51.899Z,70.74
2022-09-04T00:49:18.204Z,70.46
2022-09-04T00:51:44.508Z,70.90
2022-09-04T00:54:10.807Z,71.35
2022-09-04T00:56:37.140Z,71.78
2022-09-04T00:59:03.445Z,71.87
2022-09-04T01:01:29.834Z,71.82
2022-09-04T01:03:56.617Z,71.93
2022-09-04T01:06:25.020Z,71.89
2022-09-04T01:08:56.213Z,71.86
2022-09-04T01:11:22.917Z,71.93
2022-09-04T01:13:49.230Z,72.02
2022-09-04T01:16:15.811Z,72.38
2022-09-04T01:18:42.139Z,72.01
2022-09-04T01:21:08.495Z,72.58
2022-09-04T01:23:35.182Z,72.35
2022-09-04T01:26:01.501Z,72.86
2022-09-04T01:28:27.886Z,72.67
2022-09-04T01:30:54.182Z,72.82
2022-09-04T01:33:20.485Z,72.87
2022-09-04T01:35:46.783Z,73.75
2022-09-04T01:38:13.079Z,73.90
2022-09-04T01:40:39.399Z,73.75
2022-09-04T01:43:05.699Z,73.86
2022-09-04T01:45:32.051Z,74.02
2022-09-04T01:47:58.373Z,74.46
2022-09-04T01:50:24.691Z,74.91
2022-09-04T01:52:50.999Z,73.75
2022-09-04T01:55:17.344Z,73.69
2022-09-04T01:57:43.647Z,74.14
2022-09-04T02:00:10.276Z,74.54
2022-09-04T02:02:36.681Z,75.28
2022-09-04T02:05:07.733Z,74.70
2022-09-04T02:07:34.730Z,74.33
2022-09-04T02:10:01.028Z,75.16
2022-09-04T02:12:27.378Z,76.70
2022-09-04T02:14:54.019Z,75.61
2022-09-04T02:17:20.377Z,75.47
2022-09-04T02:19:47.661Z,74.82
2022-09-04T02:22:15.166Z,74.85
2022-09-04T02:24:41.460Z,74.90
2022-09-04T02:27:07.764Z,74.29
2022-09-04T02:29:34.067Z,74.87
2022-09-04T02:32:00.429Z,74.91
2022-09-04T02:34:26.763Z,74.88
2022-09-04T02:36:53.066Z,75.32
2022-09-04T02:39:19.393Z,76.34
2022-09-04T02:41:50.715Z,76.67
2022-09-04T02:44:17.020Z,76.75
2022-09-04T02:46:43.578Z,75.88
2022-09-04T02:49:09.888Z,75.66
2022-09-04T02:51:39.192Z,75.14
2022-09-04T02:54:05.498Z,75.30
2022-09-04T02:56:31.803Z,75.01
2022-09-04T02:58:58.108Z,75.28
2022-09-04T03:01:24.437Z,74.86
2022-09-04T03:03:50.793Z,75.26
2022-09-04T03:06:17.099Z,75.02
2022-09-04T03:08:43.400Z,74.98
2022-09-04T03:11:12.464Z,74.75
2022-09-04T03:13:38.759Z,74.40
2022-09-04T03:16:05.118Z,75.09
2022-09-04T03:18:31.467Z,75.66
2022-09-04T03:20:58.030Z,75.20
2022-09-04T03:23:24.535Z,75.29
2022-09-04T03:25:50.865Z,75.13
2022-09-04T03:28:17.245Z,75.27
2022-09-04T03:30:43.568Z,75.21
2022-09-04T03:33:11.136Z,75.99
2022-09-04T03:35:37.715Z,76.41
2022-09-04T03:38:04.027Z,75.91
2022-09-04T03:40:30.376Z,76.50
2022-09-04T03:42:56.687Z,76.01
2022-09-04T03:45:22.996Z,75.78
2022-09-04T03:47:49.321Z,76.37
2022-09-04T03:50:15.629Z,76.49
2022-09-04T03:52:41.977Z,78.30
2022-09-04T03:55:08.281Z,76.98
2022-09-04T03:57:34.605Z,76.79
2022-09-04T04:00:00.953Z,76.89
2022-09-04T04:02:27.322Z,77.24
2022-09-04T04:04:53.667Z,77.57
2022-09-04T04:07:20.005Z,77.41
2022-09-04T04:09:46.303Z,76.92
2022-09-04T04:12:13.069Z,76.83
2022-09-04T04:14:39.417Z,76.91
2022-09-04T04:17:06.004Z,76.65
2022-09-04T04:19:33.741Z,75.91
2022-09-04T04:22:00.055Z,75.66
2022-09-04T04:24:30.418Z,73.18
2022-09-04T04:26:56.725Z,73.35
2022-09-04T04:29:25.340Z,72.94
2022-09-04T04:32:10.423Z,73.25
2022-09-04T04:34:36.729Z,73.96
2022-09-04T04:37:03.053Z,73.62
2022-09-04T04:39:30.382Z,74.24
2022-09-04T04:42:05.889Z,73.42
2022-09-04T04:44:50.976Z,73.49
2022-09-04T04:47:17.292Z,73.16
2022-09-04T04:49:43.599Z,73.17
2022-09-04T04:52:09.917Z,73.06
2022-09-04T04:54:36.226Z,73.24
2022-09-04T04:57:03.724Z,72.79
2022-09-04T04:59:30.020Z,72.84
2022-09-04T05:01:56.468Z,73.05
2022-09-04T05:04:23.180Z,72.91
2022-09-04T05:06:49.807Z,72.83
2022-09-04T05:09:16.112Z,72.70
2022-09-04T05:11:42.409Z,73.09
2022-09-04T05:14:08.707Z,72.64
2022-09-04T05:16:35.072Z,72.60
2022-09-04T05:19:01.428Z,72.66
2022-09-04T05:21:27.747Z,72.55
2022-09-04T05:23:54.047Z,72.82
2022-09-04T05:26:20.393Z,73.06
2022-09-04T05:28:46.725Z,73.36
2022-09-04T05:31:13.116Z,72.81
2022-09-04T05:33:39.448Z,72.77
2022-09-04T05:36:05.755Z,72.64
2022-09-04T05:38:32.047Z,72.60
2022-09-04T05:40:58.368Z,71.99
2022-09-04T05:43:24.664Z,72.72
2022-09-04T05:45:50.986Z,72.62
2022-09-04T05:48:17.295Z,72.67
2022-09-04T05:50:43.652Z,72.59
2022-09-04T05:53:10.021Z,71.67
2022-09-04T05:55:36.331Z,71.36
2022-09-04T05:58:02.644Z,70.72
2022-09-04T06:00:28.939Z,71.03
2022-09-04T06:02:55.367Z,70.95
2022-09-04T06:05:21.741Z,70.44
2022-09-04T06:07:48.055Z,71.16
2022-09-04T06:10:14.359Z,70.94
2022-09-04T06:12:40.683Z,70.44
2022-09-04T06:15:06.991Z,70.89
2022-09-04T06:17:33.292Z,71.41
2022-09-04T06:19:59.594Z,71.11
2022-09-04T06:22:25.908Z,71.08
2022-09-04T06:24:52.229Z,70.07
2022-09-04T06:27:18.527Z,69.06
2022-09-04T06:29:44.832Z,69.05
2022-09-04T06:32:11.127Z,68.32
2022-09-04T06:34:37.435Z,67.38
2022-09-04T06:37:03.734Z,67.31
2022-09-04T06:39:30.675Z,66.93
2022-09-04T06:41:56.963Z,66.53
2022-09-04T06:44:23.445Z,66.57
2022-09-04T06:46:49.828Z,66.78
2022-09-04T06:49:16.184Z,66.53
2022-09-04T06:51:42.917Z,67.93
2022-09-04T06:54:09.227Z,66.64
2022-09-04T06:56:35.535Z,65.36
2022-09-04T06:59:01.845Z,65.28
2022-09-04T07:01:30.068Z,64.98
2022-09-04T07:03:56.466Z,64.32
2022-09-04T07:06:22.913Z,64.17
2022-09-04T07:08:49.212Z,63.81
2022-09-04T07:11:15.557Z,63.72
2022-09-04T07:13:41.864Z,63.73
2022-09-04T07:16:09.335Z,63.12
2022-09-04T07:18:35.708Z,62.73
2022-09-04T07:21:02.262Z,63.36
2022-09-04T07:23:28.732Z,62.50
2022-09-04T07:25:56.648Z,61.96
2022-09-04T07:28:22.879Z,61.83
2022-09-04T07:30:49.236Z,60.76
2022-09-04T07:33:15.921Z,61.47
2022-09-04T07:35:42.263Z,61.90
2022-09-04T07:38:08.560Z,61.93
2022-09-04T07:40:34.878Z,60.67
2022-09-04T07:43:05.885Z,60.75
2022-09-04T07:45:32.380Z,61.28
2022-09-04T07:47:59.057Z,59.47
2022-09-04T07:50:25.431Z,59.49
2022-09-04T07:52:51.969Z,60.98
2022-09-04T07:55:18.260Z,61.25
2022-09-04T07:57:44.563Z,60.97
2022-09-04T08:00:13.586Z,61.34
2022-09-04T08:02:39.957Z,60.43
2022-09-04T08:05:06.334Z,60.32
2022-09-04T08:07:32.663Z,59.46
2022-09-04T08:09:58.960Z,59.04
2022-09-04T08:12:25.639Z,60.03
2022-09-04T08:14:51.939Z,59.87
2022-09-04T08:17:20.810Z,60.19
2022-09-04T08:19:47.130Z,59.67
2022-09-04T08:22:13.505Z,58.50
2022-09-04T08:24:40.523Z,58.99
2022-09-04T08:27:09.233Z,57.96
2022-09-04T08:29:35.528Z,58.01
2022-09-04T08:32:04.409Z,57.22
2022-09-04T08:34:30.711Z,57.34
2022-09-04T08:36:57.028Z,57.69
2022-09-04T08:39:23.449Z,58.03
2022-09-04T08:41:50.043Z,58.48
2022-09-04T08:44:16.354Z,57.61
2022-09-04T08:46:47.462Z,57.90
2022-09-04T08:49:17.014Z,59.07
2022-09-04T08:51:43.333Z,57.89
2022-09-04T08:54:09.638Z,57.00
2022-09-04T08:56:36.274Z,57.78
2022-09-04T08:59:02.585Z,56.92
2022-09-04T09:01:29.502Z,57.23
2022-09-04T09:03:55.935Z,56.60
2022-09-04T09:06:22.291Z,56.68
2022-09-04T09:08:48.695Z,55.76
2022-09-04T09:11:15.007Z,55.89
2022-09-04T09:13:43.590Z,55.65
2022-09-04T09:16:09.900Z,55.57
2022-09-04T09:18:37.290Z,56.06
2022-09-04T09:21:07.038Z,56.19
2022-09-04T09:23:33.360Z,54.78
2022-09-04T09:26:06.219Z,54.82
2022-09-04T09:28:32.812Z,54.62
2022-09-04T09:30:59.172Z,54.19
2022-09-04T09:33:25.548Z,53.45
2022-09-04T09:35:55.858Z,53.47
2022-09-04T09:38:22.241Z,53.30
2022-09-04T09:40:48.540Z,52.22
2022-09-04T09:43:14.876Z,52.58
2022-09-04T09:45:42.027Z,53.95
2022-09-04T09:48:11.522Z,53.30
2022-09-04T09:50:38.421Z,52.71
2022-09-04T09:53:04.725Z,51.71
2022-09-04T09:55:31.024Z,51.68
2022-09-04T09:57:57.343Z,52.20
2022-09-04T10:00:25.655Z,51.98
2022-09-04T10:02:52.003Z,51.16
2022-09-04T10:05:19.276Z,52.36
2022-09-04T10:07:45.667Z,51.78
2022-09-04T10:10:12.206Z,51.82
2022-09-04T10:12:41.816Z,50.35
2022-09-04T10:15:08.127Z,50.39
2022-09-04T10:17:34.427Z,50.09
2022-09-04T10:20:00.731Z,49.65
2022-09-04T10:22:27.023Z,51.47
2022-09-04T10:24:53.597Z,50.29
2022-09-04T10:27:19.895Z,49.33
2022-09-04T10:29:46.418Z,49.83
2022-09-04T10:32:12.728Z,50.03
2022-09-04T10:34:39.045Z,49.62
2022-09-04T10:37:05.350Z,49.09
2022-09-04T10:39:57.716Z,49.83
2022-09-04T10:42:24.067Z,48.91
2022-09-04T10:44:50.520Z,49.15
2022-09-04T10:47:16.828Z,48.84
2022-09-04T10:49:43.137Z,50.10
2022-09-04T10:52:09.670Z,48.93
2022-09-04T10:54:36.004Z,49.13
2022-09-04T10:57:02.304Z,47.94
2022-09-04T10:59:29.136Z,47.23
2022-09-04T11:01:55.490Z,47.80
2022-09-04T11:04:22.466Z,47.72
2022-09-04T11:06:49.361Z,47.39
2022-09-04T11:09:15.668Z,48.30
2022-09-04T11:11:42.142Z,47.48
2022-09-04T11:14:08.441Z,47.24
2022-09-04T11:16:34.805Z,46.58
2022-09-04T11:19:01.158Z,46.31
2022-09-04T11:21:29.173Z,46.13
2022-09-04T11:23:56.270Z,47.32
2022-09-04T11:26:24.428Z,48.18
2022-09-04T11:28:51.309Z,45.92
2022-09-04T11:31:20.753Z,45.40
2022-09-04T11:33:47.883Z,46.23
2022-09-04T11:36:14.282Z,46.35
2022-09-04T11:38:43.786Z,45.49
2022-09-04T11:41:10.187Z,45.92
2022-09-04T11:43:37.414Z,45.90
2022-09-04T11:46:03.950Z,45.64
2022-09-04T11:48:30.303Z,44.72
2022-09-04T11:51:01.446Z,45.27
2022-09-04T11:53:27.797Z,45.34
2022-09-04T11:55:54.095Z,45.21
2022-09-04T11:58:20.507Z,44.49
2022-09-04T12:00:47.173Z,45.90
2022-09-04T12:03:13.483Z,45.30
2022-09-04T12:05:39.771Z,44.87
2022-09-04T12:08:07.049Z,44.64
2022-09-04T12:10:33.364Z,45.30
2022-09-04T12:13:00.434Z,44.80
2022-09-04T12:15:41.183Z,44.43
2022-09-04T12:18:08.435Z,44.89
2022-09-04T12:20:34.731Z,45.16
2022-09-04T12:23:01.610Z,45.13
2022-09-04T12:25:27.923Z,45.61
2022-09-04T12:27:54.261Z,45.59
2022-09-04T12:30:20.567Z,45.42
2022-09-04T12:32:46.882Z,45.17
2022-09-04T12:35:13.272Z,45.47
2022-09-04T12:37:43.415Z,44.95
2022-09-04T12:40:09.825Z,44.90
2022-09-04T12:42:36.237Z,44.62
2022-09-04T12:45:02.592Z,45.72
2022-09-04T12:47:28.915Z,45.53
2022-09-04T12:49:58.115Z,44.80
2022-09-04T12:52:24.424Z,44.96
2022-09-04T12:54:51.219Z,44.71
2022-09-04T12:57:17.482Z,44.89
2022-09-04T12:59:45.556Z,45.86
2022-09-04T13:02:12.092Z,46.27
2022-09-04T13:04:40.531Z,45.14
2022-09-04T13:07:15.656Z,45.28
2022-09-04T13:09:42.751Z,45.23
2022-09-04T13:12:19.692Z,44.36
2022-09-04T13:14:46.138Z,44.91
2022-09-04T13:17:12.573Z,42.96
2022-09-04T13:19:38.901Z,44.17
2022-09-04T13:22:05.224Z,43.62
2022-09-04T13:24:35.769Z,43.82
2022-09-04T13:27:02.508Z,43.46
2022-09-04T13:29:29.465Z,43.75
2022-09-04T13:31:56.152Z,42.93
2022-09-04T13:34:24.231Z,41.67
2022-09-04T13:36:54.125Z,43.18
2022-09-04T13:39:20.754Z,42.89
2022-09-04T13:41:47.941Z,43.41
2022-09-04T13:44:14.276Z,43.63
2022-09-04T13:46:40.648Z,42.70
2022-09-04T13:49:07.048Z,43.13
2022-09-04T13:51:33.355Z,43.39
2022-09-04T13:53:59.672Z,42.80
2022-09-04T13:56:26.324Z,42.84
2022-09-04T13:58:52.632Z,42.54
2022-09-04T14:01:21.661Z,43.06
2022-09-04T14:03:48.643Z,42.71
2022-09-04T14:06:15.018Z,43.00
2022-09-04T14:08:43.104Z,43.46
2022-09-04T14:11:10.021Z,42.91
2022-09-04T14:13:37.987Z,42.03
2022-09-04T14:16:04.522Z,42.98
2022-09-04T14:18:31.087Z,43.67
2022-09-04T14:21:01.597Z,44.21
2022-09-04T14:23:29.712Z,43.62
2022-09-04T14:25:56.040Z,43.99
2022-09-04T14:28:22.476Z,43.71
2022-09-04T14:30:48.786Z,43.99
2022-09-04T14:33:19.470Z,44.16
2022-09-04T14:35:49.292Z,44.02
2022-09-04T14:38:16.212Z,43.82
2022-09-04T14:40:42.517Z,43.94
2022-09-04T14:43:08.829Z,43.83
2022-09-04T14:45:35.264Z,44.32
2022-09-04T14:48:03.594Z,43.95
2022-09-04T14:50:30.229Z,43.62
2022-09-04T14:52:56.548Z,44.34
2022-09-04T14:55:22.847Z,43.95
2022-09-04T14:57:50.176Z,44.01
2022-09-04T15:00:19.742Z,44.59
2022-09-04T15:02:46.064Z,44.39
2022-09-04T15:05:12.388Z,43.36
2022-09-04T15:07:38.688Z,43.38
2022-09-04T15:10:07.329Z,43.04
2022-09-04T15:12:33.663Z,43.69
2022-09-04T15:14:59.963Z,44.00
2022-09-04T15:17:28.291Z,43.74
2022-09-04T15:19:55.421Z,44.14
2022-09-04T15:22:21.725Z,44.07
2022-09-04T15:24:48.041Z,43.61
2022-09-04T15:27:16.277Z,44.99
2022-09-04T15:29:42.921Z,44.58
2022-09-04T15:32:14.017Z,44.56
2022-09-04T15:34:40.747Z,44.44
2022-09-04T15:37:07.046Z,44.83
2022-09-04T15:39:33.420Z,44.28
2022-09-04T15:42:00.091Z,44.32
2022-09-04T15:44:29.953Z,44.51
2022-09-04T15:46:56.718Z,43.61
2022-09-04T15:49:23.035Z,43.96
2022-09-04T15:51:49.344Z,43.76
2022-09-04T15:54:15.675Z,43.96
2022-09-04T15:56:45.401Z,43.80
2022-09-04T15:59:14.720Z,43.78
2022-09-04T16:01:43.095Z,44.35
2022-09-04T16:04:12.525Z,44.19
2022-09-04T16:06:38.824Z,44.27
2022-09-04T16:09:05.135Z,44.54
2022-09-04T16:11:31.542Z,44.72
2022-09-04T16:13:59.057Z,44.96
2022-09-04T16:16:25.385Z,44.60
2022-09-04T16:18:51.760Z,44.50
2022-09-04T16:21:18.365Z,45.19
2022-09-04T16:23:44.671Z,45.01
2022-09-04T16:26:11.288Z,45.28
2022-09-04T16:28:37.926Z,44.46
2022-09-04T16:31:04.637Z,44.66
2022-09-04T16:33:30.920Z,44.45
2022-09-04T16:35:57.219Z,44.17
2022-09-04T16:38:24.356Z,44.34
2022-09-04T16:40:54.225Z,44.37
2022-09-04T16:43:21.532Z,44.60
2022-09-04T16:45:48.495Z,44.40
2022-09-04T16:48:33.725Z,44.61
2022-09-04T16:51:23.506Z,44.60
2022-09-04T16:53:52.124Z,45.26
2022-09-04T16:56:18.424Z,45.09
2022-09-04T16:58:46.080Z,45.15
2022-09-04T17:01:14.361Z,45.58
2022-09-04T17:03:41.750Z,45.25
2022-09-04T17:06:08.996Z,45.33
2022-09-04T17:08:35.321Z,45.57
2022-09-04T17:11:07.683Z,45.25
2022-09-04T17:13:36.907Z,45.53
2022-09-04T17:16:03.509Z,45.38
2022-09-04T17:18:29.916Z,45.85
2022-09-04T17:22:49.964Z,45.59
2022-09-04T17:29:00.322Z,46.16
2022-09-04T17:29:18.361Z,45.91
2022-09-04T17:29:37.337Z,46.34
2022-09-04T17:32:16.343Z,46.56
2022-09-04T17:40:35.701Z,47.38
2022-09-04T17:40:37.146Z,47.46
2022-09-04T17:40:43.498Z,46.87
2022-09-04T17:43:22.261Z,47.55
2022-09-04T17:45:51.271Z,47.88
2022-09-04T17:48:17.801Z,47.95
2022-09-04T17:50:44.795Z,48.39
2022-09-04T17:53:17.709Z,48.94
2022-09-04T17:55:58.827Z,49.31
2022-09-04T17:58:35.175Z,48.93
2022-09-04T18:01:14.716Z,49.70
2022-09-04T18:03:42.242Z,50.10
2022-09-04T18:06:28.528Z,50.98
2022-09-04T18:08:55.945Z,51.00
2022-09-04T18:11:22.844Z,51.53
2022-09-04T18:13:52.005Z,53.00
2022-09-04T18:16:18.399Z,53.41
2022-09-04T18:18:44.780Z,52.87
2022-09-04T18:21:11.072Z,53.34
2022-09-04T18:23:51.679Z,53.55
2022-09-04T18:26:18.575Z,53.63
2022-09-04T18:28:48.643Z,54.60
2022-09-04T18:37:06.723Z,54.54
2022-09-04T18:37:24.340Z,55.40
2022-09-04T18:37:26.040Z,54.34
2022-09-04T18:39:35.929Z,53.67
2022-09-04T18:49:43.080Z,55.41
2022-09-04T18:50:32.230Z,53.86
2022-09-04T18:50:44.415Z,55.19
2022-09-04T18:51:04.454Z,54.05
2022-09-04T18:53:07.461Z,53.61
2022-09-04T18:55:33.758Z,53.62
2022-09-04T18:58:00.054Z,53.32
2022-09-04T19:00:26.397Z,53.46
2022-09-04T19:02:53.422Z,53.85
2022-09-04T19:05:20.166Z,54.41
2022-09-04T19:07:46.499Z,54.00
2022-09-04T19:10:12.939Z,53.86
2022-09-04T19:12:46.953Z,54.38
2022-09-04T19:15:14.969Z,54.52
2022-09-04T19:17:41.263Z,54.66
2022-09-04T19:20:08.611Z,55.38
2022-09-04T19:22:34.997Z,55.27
2022-09-04T19:25:03.731Z,55.54
2022-09-04T19:27:29.950Z,55.60
2022-09-04T19:29:56.298Z,55.55
2022-09-04T19:32:29.943Z,56.25
2022-09-04T19:34:56.236Z,56.08
2022-09-04T19:37:54.356Z,56.44
2022-09-04T19:45:54.750Z,56.74
2022-09-04T19:46:12.821Z,56.69
2022-09-04T19:46:13.087Z,56.88
2022-09-04T19:48:27.973Z,57.43
2022-09-04T19:53:33.979Z,57.84
2022-09-04T19:53:46.937Z,57.59
2022-09-04T19:56:15.924Z,58.21
2022-09-04T19:58:44.335Z,58.40
2022-09-04T20:01:10.825Z,58.27
2022-09-04T20:03:37.560Z,58.31
2022-09-04T20:06:21.171Z,58.63
2022-09-04T20:08:51.547Z,58.39
2022-09-04T20:11:30.635Z,59.16
2022-09-04T20:14:02.443Z,59.24
2022-09-04T20:16:40.565Z,59.64
2022-09-04T20:19:14.893Z,59.31
2022-09-04T20:21:46.570Z,59.73
2022-09-04T20:24:12.875Z,59.63
2022-09-04T20:26:39.182Z,60.07
2022-09-04T20:29:05.484Z,60.59
2022-09-04T20:31:36.167Z,60.65
2022-09-04T20:34:03.323Z,61.20
2022-09-04T20:36:35.969Z,60.84
2022-09-04T20:39:02.492Z,61.00
2022-09-04T20:41:29.195Z,61.56
2022-09-04T20:43:56.057Z,61.17
2022-09-04T21:03:21.497Z,62.71
2022-09-04T21:03:39.968Z,62.98
2022-09-04T21:06:07.338Z,63.47
2022-09-04T21:08:34.069Z,63.96
2022-09-04T21:11:00.387Z,63.67
2022-09-04T21:13:26.825Z,63.81
2022-09-04T21:15:53.455Z,64.13
2022-09-04T21:18:23.316Z,63.99
2022-09-04T21:21:00.318Z,64.72
2022-09-04T21:23:27.028Z,64.85
2022-09-04T21:26:02.048Z,64.70
2022-09-04T21:28:28.353Z,64.64
2022-09-04T21:30:54.715Z,64.67
2022-09-04T21:33:28.098Z,64.90
2022-09-04T21:35:55.726Z,65.09
2022-09-04T21:38:26.635Z,65.54
2022-09-04T21:40:53.047Z,65.75
2022-09-04T21:43:19.470Z,65.86
2022-09-04T21:45:45.813Z,65.93
2022-09-04T21:48:18.488Z,66.20
2022-09-04T21:50:50.691Z,66.24
2022-09-04T21:53:18.859Z,66.42
2022-09-04T22:00:02.066Z,66.58
2022-09-04T22:02:37.438Z,66.63
2022-09-04T22:02:41.884Z,66.81
2022-09-04T22:04:04.481Z,66.92
2022-09-04T22:07:03.516Z,67.00
2022-09-04T22:13:30.723Z,66.89
2022-09-04T22:13:32.523Z,66.70
2022-09-04T22:14:50.088Z,67.43
2022-09-04T22:17:16.389Z,67.27
2022-09-04T22:19:42.722Z,67.35
2022-09-04T22:22:09.036Z,68.24
2022-09-04T22:24:41.074Z,68.37
2022-09-04T22:27:07.792Z,68.38
2022-09-04T22:29:40.212Z,68.56
2022-09-04T22:32:06.746Z,68.76
2022-09-04T22:34:39.282Z,69.03
2022-09-04T22:37:05.588Z,69.21
2022-09-04T22:39:32.347Z,69.47
2022-09-04T22:41:58.687Z,69.61
2022-09-04T22:44:24.987Z,69.92
2022-09-04T22:46:51.319Z,70.07
2022-09-04T22:49:17.633Z,70.53
2022-09-04T22:51:43.965Z,70.33
2022-09-04T22:54:10.286Z,70.47
2022-09-04T22:56:36.579Z,70.96
2022-09-04T22:59:10.533Z,71.31
2022-09-04T23:01:49.217Z,71.53
2022-09-04T23:04:15.594Z,72.21
2022-09-04T23:10:05.078Z,71.70
2022-09-04T23:13:50.172Z,72.20
2022-09-04T23:14:01.501Z,72.20
2022-09-04T23:15:08.279Z,72.07
2022-09-04T23:17:35.265Z,72.38
2022-09-04T23:26:36.978Z,72.22
2022-09-04T23:26:43.385Z,72.31
2022-09-04T23:26:51.088Z,72.52
2022-09-04T23:28:28.242Z,72.95
2022-09-04T23:30:55.025Z,72.76
2022-09-04T23:33:27.962Z,73.16
2022-09-04T23:35:54.584Z,73.22
2022-09-04T23:38:20.896Z,73.27
2022-09-04T23:40:47.263Z,73.44
2022-09-04T23:43:13.572Z,73.21
2022-09-04T23:45:49.592Z,73.10
2022-09-04T23:48:26.440Z,73.41
2022-09-04T23:50:52.742Z,73.34
2022-09-04T23:53:19.135Z,73.68
2022-09-04T23:55:48.889Z,73.91
2022-09-04T23:58:34.544Z,73.80
